createdAt,value
2018-10-03T00:01:38.235Z,12.30
2018-10-03T00:04:06.934Z,12.30
2018-10-03T00:06:35.380Z,12.30
2018-10-03T00:09:06.985Z,12.30
2018-10-03T00:11:35.680Z,12.30
2018-10-03T00:14:04.660Z,12.30
2018-10-03T00:16:33.372Z,12.20
2018-10-03T00:19:02.247Z,12.20
2018-10-03T00:21:31.328Z,12.20
2018-10-03T00:24:00.233Z,12.10
2018-10-03T00:26:29.044Z,12.10
2018-10-03T00:28:57.748Z,12.10
2018-10-03T00:31:26.412Z,12.20
2018-10-03T00:33:55.058Z,12.10
2018-10-03T00:36:23.575Z,12.10
2018-10-03T00:38:52.229Z,12.20
2018-10-03T00:41:20.807Z,12.20
2018-10-03T00:43:49.540Z,12.20
2018-10-03T00:46:18.137Z,12.20
2018-10-03T00:48:46.991Z,12.20
2018-10-03T00:51:15.660Z,12.20
2018-10-03T00:53:44.326Z,12.20
2018-10-03T00:56:13.064Z,12.20
2018-10-03T00:58:41.748Z,12.30
2018-10-03T01:01:10.365Z,12.30
2018-10-03T01:03:39.006Z,12.30
2018-10-03T01:06:07.677Z,12.40
2018-10-03T01:08:36.354Z,12.40
2018-10-03T01:11:05.000Z,12.40
2018-10-03T01:13:33.496Z,12.40
2018-10-03T01:16:02.140Z,12.30
2018-10-03T01:18:30.836Z,12.30
2018-10-03T01:20:59.373Z,12.30
2018-10-03T01:23:27.928Z,12.30
2018-10-03T01:28:36.196Z,12.40
2018-10-03T01:31:04.896Z,12.30
2018-10-03T01:33:33.619Z,12.30
2018-10-03T01:36:02.444Z,12.20
2018-10-03T01:38:31.183Z,12.10
2018-10-03T01:40:59.754Z,12.00
2018-10-03T01:43:28.571Z,12.00
2018-10-03T01:45:57.445Z,11.90
2018-10-03T01:48:26.240Z,11.80
2018-10-03T01:50:54.916Z,11.70
2018-10-03T01:53:23.696Z,11.60
2018-10-03T01:55:52.506Z,11.60
2018-10-03T01:58:21.701Z,11.50
2018-10-03T02:00:50.532Z,11.40
2018-10-03T02:03:19.208Z,11.30
2018-10-03T02:05:48.027Z,11.30
2018-10-03T02:08:16.670Z,11.40
2018-10-03T02:10:45.279Z,11.40
2018-10-03T02:13:14.054Z,11.40
2018-10-03T02:15:42.789Z,11.40
2018-10-03T02:18:11.333Z,11.50
2018-10-03T02:20:40.022Z,11.50
2018-10-03T02:23:08.675Z,11.50
2018-10-03T02:25:37.351Z,11.50
2018-10-03T02:28:06.021Z,11.50
2018-10-03T02:30:34.862Z,11.50
2018-10-03T02:33:03.506Z,11.50
2018-10-03T02:35:32.193Z,11.50
2018-10-03T02:38:00.882Z,11.50
2018-10-03T02:40:29.564Z,11.60
2018-10-03T02:42:58.100Z,11.60
2018-10-03T02:45:26.773Z,11.60
2018-10-03T02:47:55.502Z,11.60
2018-10-03T02:50:24.163Z,11.70
2018-10-03T02:52:52.843Z,11.60
2018-10-03T02:55:21.597Z,11.60
2018-10-03T02:57:50.190Z,11.60
2018-10-03T03:00:18.946Z,11.60
2018-10-03T03:02:47.607Z,11.60
2018-10-03T03:05:16.263Z,11.60
2018-10-03T03:07:45.010Z,11.60
2018-10-03T03:10:13.628Z,11.60
2018-10-03T03:12:42.325Z,11.60
2018-10-03T03:15:11.137Z,11.50
2018-10-03T03:17:39.914Z,11.50
2018-10-03T03:20:08.588Z,11.50
2018-10-03T03:22:37.169Z,11.40
2018-10-03T03:25:05.981Z,11.40
2018-10-03T03:27:34.736Z,11.30
2018-10-03T03:30:03.409Z,11.30
2018-10-03T03:32:32.047Z,11.20
2018-10-03T03:35:00.721Z,11.20
2018-10-03T03:37:29.296Z,11.10
2018-10-03T03:39:57.924Z,11.10
2018-10-03T03:42:26.450Z,11.00
2018-10-03T03:44:55.203Z,11.00
2018-10-03T03:47:23.858Z,11.00
2018-10-03T03:49:52.393Z,11.00
2018-10-03T03:52:21.040Z,10.90
2018-10-03T03:54:49.564Z,10.80
2018-10-03T03:57:18.200Z,10.80
2018-10-03T03:59:46.849Z,10.70
2018-10-03T04:02:15.510Z,10.70
2018-10-03T04:04:44.237Z,10.70
2018-10-03T04:07:12.940Z,10.60
2018-10-03T04:09:41.544Z,10.60
2018-10-03T04:12:10.278Z,10.60
2018-10-03T04:14:39.006Z,10.50
2018-10-03T04:17:07.651Z,10.50
2018-10-03T04:19:36.376Z,10.50
2018-10-03T04:22:05.293Z,10.60
2018-10-03T04:24:33.847Z,10.60
2018-10-03T04:27:02.704Z,10.60
2018-10-03T04:29:31.359Z,10.60
2018-10-03T04:32:00.096Z,10.50
2018-10-03T04:34:28.806Z,10.60
2018-10-03T04:36:57.380Z,10.50
2018-10-03T04:39:26.336Z,10.50
2018-10-03T04:41:54.970Z,10.40
2018-10-03T04:44:23.670Z,10.40
2018-10-03T04:46:52.425Z,10.40
2018-10-03T04:49:21.060Z,10.40
2018-10-03T04:51:49.635Z,10.40
2018-10-03T04:54:18.352Z,10.30
2018-10-03T04:56:46.967Z,10.30
2018-10-03T04:59:15.533Z,10.30
2018-10-03T05:01:44.197Z,10.20
2018-10-03T05:04:12.914Z,10.20
2018-10-03T05:06:41.528Z,10.20
2018-10-03T05:09:10.182Z,10.20
2018-10-03T05:11:38.898Z,10.10
2018-10-03T05:14:07.714Z,10.20
2018-10-03T05:16:36.328Z,10.10
2018-10-03T05:19:05.312Z,10.00
2018-10-03T05:21:34.143Z,10.00
2018-10-03T05:24:05.082Z,10.00
2018-10-03T05:26:35.302Z,10.00
2018-10-03T05:29:04.910Z,9.90
2018-10-03T05:31:33.727Z,9.80
2018-10-03T05:34:02.729Z,9.80
2018-10-03T05:36:31.837Z,9.80
2018-10-03T05:39:00.605Z,9.90
2018-10-03T05:41:29.838Z,9.90
2018-10-03T05:43:58.858Z,9.90
2018-10-03T05:46:27.308Z,9.80
2018-10-03T05:48:56.320Z,9.80
2018-10-03T05:51:26.882Z,9.90
2018-10-03T05:53:55.753Z,9.90
2018-10-03T05:56:24.367Z,9.90
2018-10-03T05:58:52.986Z,9.80
2018-10-03T06:01:21.594Z,9.80
2018-10-03T06:03:50.232Z,9.70
2018-10-03T06:06:18.989Z,9.80
2018-10-03T06:08:47.994Z,9.80
2018-10-03T06:11:16.736Z,9.90
2018-10-03T06:13:45.495Z,9.90
2018-10-03T06:16:14.278Z,9.90
2018-10-03T06:18:43.204Z,10.00
2018-10-03T06:21:11.786Z,10.00
2018-10-03T06:23:40.708Z,10.00
2018-10-03T06:26:09.326Z,10.10
2018-10-03T06:28:37.962Z,10.10
2018-10-03T06:31:06.768Z,10.10
2018-10-03T06:33:35.363Z,10.10
2018-10-03T06:36:04.101Z,10.20
2018-10-03T06:38:32.775Z,10.20
2018-10-03T06:41:01.316Z,10.30
2018-10-03T06:43:30.110Z,10.40
2018-10-03T06:45:58.985Z,10.50
2018-10-03T06:48:27.522Z,10.60
2018-10-03T06:50:56.073Z,10.70
2018-10-03T06:53:24.609Z,10.90
2018-10-03T06:55:53.632Z,11.00
2018-10-03T06:58:22.143Z,11.00
2018-10-03T07:00:50.836Z,11.10
2018-10-03T07:03:19.246Z,11.50
2018-10-03T07:05:48.206Z,11.80
2018-10-03T07:08:16.680Z,12.20
2018-10-03T07:10:45.258Z,13.10
2018-10-03T07:13:13.776Z,14.30
2018-10-03T07:15:42.405Z,14.70
2018-10-03T07:18:11.229Z,14.70
2018-10-03T07:20:39.674Z,14.20
2018-10-03T07:23:08.295Z,14.20
2018-10-03T07:25:36.758Z,14.40
2018-10-03T07:28:05.700Z,14.20
2018-10-03T07:30:34.165Z,14.00
2018-10-03T07:33:02.832Z,13.90
2018-10-03T07:35:31.346Z,14.00
2018-10-03T07:37:59.980Z,13.90
2018-10-03T07:40:28.494Z,13.80
2018-10-03T07:42:56.952Z,13.90
2018-10-03T07:45:25.485Z,13.90
2018-10-03T07:47:54.132Z,13.80
2018-10-03T07:50:23.053Z,14.00
2018-10-03T07:52:51.632Z,14.20
2018-10-03T07:55:20.085Z,14.40
2018-10-03T07:57:48.557Z,14.40
2018-10-03T08:00:25.334Z,14.20
2018-10-03T08:02:54.389Z,14.40
2018-10-03T08:05:22.874Z,14.30
2018-10-03T08:07:51.378Z,14.80
2018-10-03T08:10:20.179Z,14.90
2018-10-03T08:12:49.031Z,15.00
2018-10-03T08:15:17.743Z,15.30
2018-10-03T08:17:46.786Z,15.30
2018-10-03T08:20:15.616Z,15.80
2018-10-03T08:22:44.328Z,16.00
2018-10-03T08:25:12.785Z,16.50
2018-10-03T08:27:41.599Z,18.00
2018-10-03T08:30:10.233Z,18.80
2018-10-03T08:32:38.773Z,18.80
2018-10-03T08:35:07.271Z,18.80
2018-10-03T08:37:36.686Z,18.90
2018-10-03T08:40:05.314Z,18.70
2018-10-03T08:42:34.028Z,19.10
2018-10-03T08:45:02.623Z,20.20
2018-10-03T08:47:31.281Z,20.80
2018-10-03T08:49:59.973Z,21.00
2018-10-03T08:52:28.731Z,21.10
2018-10-03T08:54:58.296Z,21.90
2018-10-03T08:57:27.302Z,21.80
2018-10-03T08:59:55.751Z,22.20
2018-10-03T09:02:24.387Z,21.80
2018-10-03T09:04:53.042Z,20.90
2018-10-03T09:07:21.492Z,22.40
2018-10-03T09:09:50.107Z,22.00
2018-10-03T09:12:18.599Z,21.80
2018-10-03T09:14:47.123Z,21.50
2018-10-03T09:17:15.877Z,22.20
2018-10-03T09:19:44.332Z,21.60
2018-10-03T09:22:12.989Z,22.30
2018-10-03T09:24:41.485Z,21.40
2018-10-03T09:27:09.917Z,21.40
2018-10-03T09:29:38.644Z,21.30
2018-10-03T09:32:07.487Z,21.50
2018-10-03T09:34:36.181Z,21.50
2018-10-03T09:37:04.880Z,21.60
2018-10-03T09:39:33.734Z,20.60
2018-10-03T09:42:02.564Z,20.80
2018-10-03T09:44:31.031Z,19.80
2018-10-03T09:46:59.673Z,20.10
2018-10-03T09:49:28.532Z,18.90
2018-10-03T09:51:57.046Z,18.50
2018-10-03T09:54:25.463Z,19.00
2018-10-03T09:56:54.036Z,18.80
2018-10-03T09:59:22.574Z,18.80
2018-10-03T10:01:51.108Z,18.20
2018-10-03T10:04:19.548Z,18.50
2018-10-03T10:06:48.141Z,18.30
2018-10-03T10:09:17.091Z,18.10
2018-10-03T10:11:45.713Z,17.70
2018-10-03T10:14:14.282Z,18.60
2018-10-03T10:16:42.700Z,18.00
2018-10-03T10:19:11.103Z,18.30
2018-10-03T10:21:39.504Z,18.00
2018-10-03T10:24:08.057Z,17.60
2018-10-03T10:26:36.566Z,17.80
2018-10-03T10:29:05.061Z,17.70
2018-10-03T10:31:33.546Z,17.40
2018-10-03T10:34:02.082Z,17.40
2018-10-03T10:36:30.615Z,17.40
2018-10-03T10:38:59.119Z,17.80
2018-10-03T10:41:27.607Z,18.10
2018-10-03T10:43:55.908Z,17.90
2018-10-03T10:46:24.516Z,18.10
2018-10-03T10:48:53.031Z,18.00
2018-10-03T10:51:21.644Z,18.30
2018-10-03T10:53:50.126Z,18.40
2018-10-03T10:56:18.712Z,17.90
2018-10-03T10:58:47.175Z,17.80
2018-10-03T11:01:15.788Z,17.80
2018-10-03T11:03:44.381Z,17.20
2018-10-03T11:06:12.891Z,17.30
2018-10-03T11:08:41.434Z,17.40
2018-10-03T11:11:09.987Z,17.30
2018-10-03T11:13:38.458Z,17.20
2018-10-03T11:16:07.177Z,16.90
2018-10-03T11:18:35.567Z,16.90
2018-10-03T11:21:04.041Z,17.10
2018-10-03T11:23:32.715Z,17.20
2018-10-03T11:26:01.178Z,17.20
2018-10-03T11:28:29.831Z,17.10
2018-10-03T11:30:58.483Z,17.10
2018-10-03T11:33:27.032Z,17.10
2018-10-03T11:35:55.527Z,17.30
2018-10-03T11:38:24.008Z,17.60
2018-10-03T11:40:52.516Z,17.50
2018-10-03T11:43:20.972Z,17.40
2018-10-03T11:45:49.702Z,17.40
2018-10-03T11:48:18.246Z,17.30
2018-10-03T11:50:46.993Z,17.30
2018-10-03T11:53:15.509Z,17.40
2018-10-03T11:55:44.275Z,17.50
2018-10-03T11:58:12.711Z,17.80
2018-10-03T12:00:41.348Z,17.70
2018-10-03T12:03:09.914Z,17.30
2018-10-03T12:05:38.309Z,17.80
2018-10-03T12:08:06.835Z,17.70
2018-10-03T12:10:35.446Z,17.20
2018-10-03T12:13:03.982Z,16.90
2018-10-03T12:15:32.504Z,16.80
2018-10-03T12:18:01.172Z,17.00
2018-10-03T12:20:29.753Z,17.10
2018-10-03T12:22:58.349Z,17.10
2018-10-03T12:25:26.938Z,17.00
2018-10-03T12:27:55.512Z,17.00
2018-10-03T12:30:24.097Z,17.00
2018-10-03T12:32:52.941Z,17.00
2018-10-03T12:35:26.719Z,17.30
2018-10-03T12:37:55.392Z,17.40
2018-10-03T12:40:23.978Z,17.30
2018-10-03T12:42:52.552Z,17.50
2018-10-03T12:45:21.151Z,17.60
2018-10-03T12:47:50.390Z,17.60
2018-10-03T12:50:19.110Z,17.30
2018-10-03T12:52:47.734Z,16.80
2018-10-03T12:55:16.308Z,16.90
2018-10-03T12:57:45.658Z,16.90
2018-10-03T13:00:14.191Z,16.90
2018-10-03T13:02:42.804Z,17.10
2018-10-03T13:05:11.342Z,17.20
2018-10-03T13:07:40.134Z,17.40
2018-10-03T13:10:08.632Z,17.40
2018-10-03T13:12:37.237Z,17.70
2018-10-03T13:15:06.439Z,17.70
2018-10-03T13:17:35.015Z,17.50
2018-10-03T13:20:03.571Z,17.70
2018-10-03T13:22:32.036Z,17.60
2018-10-03T13:25:00.603Z,17.40
2018-10-03T13:27:29.231Z,17.00
2018-10-03T13:29:57.928Z,16.90
2018-10-03T13:32:26.442Z,16.90
2018-10-03T13:34:55.183Z,16.50
2018-10-03T13:37:23.896Z,16.30
2018-10-03T13:39:52.552Z,16.20
2018-10-03T13:42:21.480Z,16.30
2018-10-03T13:44:50.102Z,16.10
2018-10-03T13:47:18.668Z,16.00
2018-10-03T13:49:47.160Z,16.10
2018-10-03T13:52:15.815Z,16.00
2018-10-03T13:54:44.235Z,16.00
2018-10-03T13:57:12.736Z,16.10
2018-10-03T13:59:41.567Z,16.30
2018-10-03T14:02:09.942Z,16.50
2018-10-03T14:04:38.601Z,16.60
2018-10-03T14:07:07.298Z,16.60
2018-10-03T14:09:35.772Z,16.50
2018-10-03T14:12:04.268Z,16.50
2018-10-03T14:14:32.720Z,16.70
2018-10-03T14:17:01.339Z,16.80
2018-10-03T14:19:29.733Z,16.70
2018-10-03T14:21:58.090Z,16.90
2018-10-03T14:24:26.573Z,16.80
2018-10-03T14:26:55.007Z,16.90
2018-10-03T14:29:23.607Z,16.90
2018-10-03T14:31:52.084Z,17.00
2018-10-03T14:34:20.691Z,17.20
2018-10-03T14:36:49.126Z,17.20
2018-10-03T14:39:17.616Z,17.10
2018-10-03T14:41:46.070Z,17.20
2018-10-03T14:44:14.575Z,17.10
2018-10-03T14:46:43.081Z,17.00
2018-10-03T14:49:11.640Z,16.70
2018-10-03T14:51:40.555Z,16.70
2018-10-03T14:54:09.303Z,16.70
2018-10-03T14:56:37.818Z,16.50
2018-10-03T14:59:06.356Z,16.50
2018-10-03T15:01:34.822Z,16.40
2018-10-03T15:04:03.425Z,16.00
2018-10-03T15:06:31.991Z,15.90
2018-10-03T15:09:00.587Z,16.00
2018-10-03T15:11:29.254Z,16.00
2018-10-03T15:13:57.837Z,16.10
2018-10-03T15:16:26.640Z,16.00
2018-10-03T15:18:55.160Z,16.00
2018-10-03T15:21:23.609Z,16.00
2018-10-03T15:23:52.172Z,16.00
2018-10-03T15:26:20.587Z,15.90
2018-10-03T15:28:49.378Z,15.80
2018-10-03T15:31:17.787Z,15.70
2018-10-03T15:33:46.323Z,15.70
2018-10-03T15:36:15.166Z,15.70
2018-10-03T15:38:43.734Z,15.60
2018-10-03T15:41:12.519Z,15.60
2018-10-03T15:43:41.008Z,15.50
2018-10-03T15:46:09.785Z,15.50
2018-10-03T15:48:38.395Z,15.40
2018-10-03T15:51:07.295Z,15.40
2018-10-03T15:53:37.755Z,15.30
2018-10-03T15:56:06.420Z,15.20
2018-10-03T15:58:35.240Z,15.20
2018-10-03T16:01:03.831Z,15.20
2018-10-03T16:03:32.395Z,15.20
2018-10-03T16:06:01.064Z,15.20
2018-10-03T16:08:30.220Z,15.00
2018-10-03T16:10:59.137Z,15.00
2018-10-03T16:13:27.691Z,15.00
2018-10-03T16:15:56.605Z,15.00
2018-10-03T16:18:25.150Z,15.00
2018-10-03T16:20:53.579Z,14.80
2018-10-03T16:23:22.152Z,14.80
2018-10-03T16:25:50.686Z,14.70
2018-10-03T16:28:19.362Z,14.70
2018-10-03T16:30:48.698Z,14.80
2018-10-03T16:33:18.061Z,14.80
2018-10-03T16:35:46.706Z,14.70
2018-10-03T16:38:16.482Z,14.70
2018-10-03T16:40:45.424Z,14.70
2018-10-03T16:43:14.068Z,14.50
2018-10-03T16:45:42.844Z,14.60
2018-10-03T16:48:11.445Z,14.50
2018-10-03T16:50:40.012Z,14.50
2018-10-03T16:53:08.500Z,14.40
2018-10-03T16:55:37.483Z,14.30
2018-10-03T16:58:06.702Z,14.20
2018-10-03T17:00:35.427Z,14.20
2018-10-03T17:03:04.166Z,14.00
2018-10-03T17:05:33.203Z,13.90
2018-10-03T17:08:01.803Z,13.70
2018-10-03T17:10:30.632Z,13.60
2018-10-03T17:12:59.805Z,13.50
2018-10-03T17:15:29.629Z,13.40
2018-10-03T17:17:59.762Z,13.30
2018-10-03T17:20:29.583Z,13.10
2018-10-03T17:22:59.311Z,13.00
2018-10-03T17:25:28.050Z,12.90
2018-10-03T17:27:56.683Z,12.80
2018-10-03T17:30:25.610Z,12.70
2018-10-03T17:32:54.274Z,12.60
2018-10-03T17:35:23.232Z,12.40
2018-10-03T17:37:52.024Z,12.40
2018-10-03T17:40:20.640Z,12.40
2018-10-03T17:42:49.431Z,12.30
2018-10-03T17:45:18.099Z,12.20
2018-10-03T17:47:46.726Z,12.20
2018-10-03T17:50:15.349Z,12.10
2018-10-03T17:52:44.256Z,12.10
2018-10-03T17:55:12.852Z,12.00
2018-10-03T17:57:41.287Z,11.90
2018-10-03T18:00:10.362Z,11.80
2018-10-03T18:02:39.005Z,11.70
2018-10-03T18:05:07.722Z,11.60
2018-10-03T18:07:36.394Z,11.50
2018-10-03T18:10:05.128Z,11.50
2018-10-03T18:12:33.801Z,11.40
2018-10-03T18:15:02.419Z,11.40
2018-10-03T18:17:31.271Z,11.30
2018-10-03T18:19:59.995Z,11.30
2018-10-03T18:22:28.529Z,11.20
2018-10-03T18:24:57.294Z,11.20
2018-10-03T18:27:25.812Z,11.10
2018-10-03T18:29:54.508Z,11.00
2018-10-03T18:32:23.122Z,10.90
2018-10-03T18:34:51.938Z,10.80
2018-10-03T18:37:20.734Z,10.80
2018-10-03T18:39:49.509Z,10.80
2018-10-03T18:42:18.261Z,10.70
2018-10-03T18:44:46.919Z,10.70
2018-10-03T18:47:15.516Z,10.60
2018-10-03T18:49:44.315Z,10.60
2018-10-03T18:52:12.917Z,10.40
2018-10-03T18:54:41.577Z,10.40
2018-10-03T18:57:10.222Z,10.30
2018-10-03T18:59:38.931Z,10.30
2018-10-03T19:02:07.848Z,10.30
2018-10-03T19:04:36.382Z,10.30
2018-10-03T19:07:04.978Z,10.10
2018-10-03T19:09:33.655Z,10.00
2018-10-03T19:12:02.438Z,9.80
2018-10-03T19:14:31.115Z,9.80
2018-10-03T19:17:00.023Z,9.80
2018-10-03T19:19:28.660Z,9.70
2018-10-03T19:21:57.460Z,9.80
2018-10-03T19:24:26.107Z,9.80
2018-10-03T19:26:54.861Z,9.80
2018-10-03T19:29:23.515Z,9.70
2018-10-03T19:31:51.962Z,9.70
2018-10-03T19:34:20.506Z,9.70
2018-10-03T19:36:49.181Z,9.60
2018-10-03T19:39:17.737Z,9.50
2018-10-03T19:41:46.341Z,9.50
2018-10-03T19:44:14.987Z,9.60
2018-10-03T19:46:43.637Z,9.60
2018-10-03T19:49:12.336Z,9.60
2018-10-03T19:51:40.994Z,9.40
2018-10-03T19:54:09.672Z,9.40
2018-10-03T19:56:38.331Z,9.40
2018-10-03T19:59:06.959Z,9.40
2018-10-03T20:01:35.418Z,9.40
2018-10-03T20:04:04.170Z,9.40
2018-10-03T20:06:32.844Z,9.40
2018-10-03T20:09:01.586Z,9.40
2018-10-03T20:11:30.236Z,9.40
2018-10-03T20:13:58.958Z,9.40
2018-10-03T20:16:27.634Z,9.30
2018-10-03T20:18:56.241Z,9.30
2018-10-03T20:21:24.920Z,9.30
2018-10-03T20:23:53.691Z,9.20
2018-10-03T20:26:22.410Z,9.10
2018-10-03T20:28:51.023Z,9.10
2018-10-03T20:31:19.496Z,9.10
2018-10-03T20:33:48.334Z,9.10
2018-10-03T20:36:17.104Z,9.00
2018-10-03T20:38:45.824Z,9.00
2018-10-03T20:41:14.459Z,9.00
2018-10-03T20:43:43.192Z,9.00
2018-10-03T20:46:11.814Z,9.00
2018-10-03T20:48:40.312Z,9.00
2018-10-03T20:51:09.012Z,8.90
2018-10-03T20:53:37.815Z,8.80
2018-10-03T20:56:06.792Z,8.80
2018-10-03T20:58:35.486Z,8.80
2018-10-03T21:01:04.163Z,8.80
2018-10-03T21:03:32.956Z,8.70
2018-10-03T21:06:01.898Z,8.60
2018-10-03T21:08:30.697Z,8.50
2018-10-03T21:10:59.344Z,8.60
2018-10-03T21:13:28.064Z,8.60
2018-10-03T21:15:56.825Z,8.70
2018-10-03T21:18:25.649Z,8.50
2018-10-03T21:20:54.295Z,8.50
2018-10-03T21:23:22.980Z,8.60
2018-10-03T21:25:51.716Z,8.50
2018-10-03T21:28:20.351Z,8.60
2018-10-03T21:30:49.066Z,8.60
2018-10-03T21:33:17.637Z,8.60
2018-10-03T21:35:46.555Z,8.60
2018-10-03T21:38:15.350Z,8.50
2018-10-03T21:40:44.265Z,8.40
2018-10-03T21:43:12.969Z,8.30
2018-10-03T21:45:41.594Z,8.10
2018-10-03T21:48:10.312Z,8.10
2018-10-03T21:50:39.067Z,8.10
2018-10-03T21:53:07.682Z,8.20
2018-10-03T21:55:36.358Z,8.20
2018-10-03T21:58:05.134Z,8.30
2018-10-03T22:00:39.166Z,8.30
2018-10-03T22:03:07.963Z,8.30
2018-10-03T22:05:36.777Z,8.10
2018-10-03T22:08:05.517Z,7.90
2018-10-03T22:10:34.218Z,8.00
2018-10-03T22:13:02.984Z,7.90
2018-10-03T22:15:31.738Z,7.80
2018-10-03T22:18:00.454Z,7.80
2018-10-03T22:20:29.133Z,7.90
2018-10-03T22:22:57.924Z,7.90
2018-10-03T22:25:26.700Z,7.90
2018-10-03T22:27:55.453Z,7.90
2018-10-03T22:30:24.273Z,7.90
2018-10-03T22:32:53.185Z,7.90
2018-10-03T22:35:21.666Z,7.90
2018-10-03T22:37:50.296Z,7.90
2018-10-03T22:40:18.837Z,7.80
2018-10-03T22:42:47.338Z,7.70
2018-10-03T22:45:16.062Z,7.80
2018-10-03T22:47:44.800Z,7.80
2018-10-03T22:50:13.592Z,7.80
2018-10-03T22:52:42.307Z,7.90
2018-10-03T22:55:10.942Z,7.90
2018-10-03T22:57:39.643Z,7.80
2018-10-03T23:00:09.154Z,7.80
2018-10-03T23:02:37.950Z,7.80
2018-10-03T23:05:06.643Z,7.80
2018-10-03T23:07:35.258Z,7.70
2018-10-03T23:10:03.966Z,7.80
2018-10-03T23:12:32.548Z,7.80
2018-10-03T23:15:01.324Z,7.80
2018-10-03T23:17:29.960Z,7.60
2018-10-03T23:19:58.853Z,7.60
2018-10-03T23:22:27.609Z,7.50
2018-10-03T23:24:56.304Z,7.60
2018-10-03T23:27:24.923Z,7.60
2018-10-03T23:29:53.555Z,7.50
2018-10-03T23:32:22.249Z,7.50
2018-10-03T23:34:50.968Z,7.50
2018-10-03T23:37:19.599Z,7.50
2018-10-03T23:39:48.293Z,7.60
2018-10-03T23:42:17.070Z,7.60
2018-10-03T23:44:45.765Z,7.60
2018-10-03T23:47:14.441Z,7.80
2018-10-03T23:49:43.177Z,8.00
2018-10-03T23:52:11.911Z,8.10
2018-10-03T23:54:40.645Z,8.20
2018-10-03T23:57:09.235Z,8.30
2018-10-03T23:59:37.820Z,8.30
